sensor_id;sensor_type;location;lat;lon;timestamp;temperature;humidity
16038;DHT22;8123;50.906;6.172;2023-02-27T00:01:59;0.60;99.90
16038;DHT22;8123;50.906;6.172;2023-02-27T00:04:24;0.50;99.90
16038;DHT22;8123;50.906;6.172;2023-02-27T00:06:50;0.60;99.90
16038;DHT22;8123;50.906;6.172;2023-02-27T00:09:16;0.60;99.90
16038;DHT22;8123;50.906;6.172;2023-02-27T00:11:41;0.60;99.90
16038;DHT22;8123;50.906;6.172;2023-02-27T00:14:08;0.60;99.90
16038;DHT22;8123;50.906;6.172;2023-02-27T00:16:33;0.60;99.90
16038;DHT22;8123;50.906;6.172;2023-02-27T00:18:59;0.60;99.90
16038;DHT22;8123;50.906;6.172;2023-02-27T00:21:27;0.50;99.90
16038;DHT22;8123;50.906;6.172;2023-02-27T00:23:52;0.50;99.90
16038;DHT22;8123;50.906;6.172;2023-02-27T00:26:18;0.50;99.90
16038;DHT22;8123;50.906;6.172;2023-02-27T00:28:44;0.50;99.90
16038;DHT22;8123;50.906;6.172;2023-02-27T00:31:09;0.90;99.90
16038;DHT22;8123;50.906;6.172;2023-02-27T00:33:35;0.50;99.90
16038;DHT22;8123;50.906;6.172;2023-02-27T00:36:01;0.40;99.90
16038;DHT22;8123;50.906;6.172;2023-02-27T00:38:27;0.30;99.90
16038;DHT22;8123;50.906;6.172;2023-02-27T00:40:53;0.30;99.90
16038;DHT22;8123;50.906;6.172;2023-02-27T00:43:19;0.30;99.90
16038;DHT22;8123;50.906;6.172;2023-02-27T00:45:47;0.20;99.90
16038;DHT22;8123;50.906;6.172;2023-02-27T00:48:13;0.30;99.90
16038;DHT22;8123;50.906;6.172;2023-02-27T00:50:38;0.20;99.90
16038;DHT22;8123;50.906;6.172;2023-02-27T00:53:04;0.20;99.90
16038;DHT22;8123;50.906;6.172;2023-02-27T00:55:30;0.20;99.90
16038;DHT22;8123;50.906;6.172;2023-02-27T00:57:55;0.20;99.90
16038;DHT22;8123;50.906;6.172;2023-02-27T01:00:21;0.20;99.90
16038;DHT22;8123;50.906;6.172;2023-02-27T01:02:47;0.10;99.90
16038;DHT22;8123;50.906;6.172;2023-02-27T01:05:13;0.10;99.90
16038;DHT22;8123;50.906;6.172;2023-02-27T01:07:39;0.10;99.90
16038;DHT22;8123;50.906;6.172;2023-02-27T01:10:05;0.10;99.90
16038;DHT22;8123;50.906;6.172;2023-02-27T01:12:31;0.10;99.90
16038;DHT22;8123;50.906;6.172;2023-02-27T01:14:57;0.20;99.90
16038;DHT22;8123;50.906;6.172;2023-02-27T01:17:22;0.10;99.90
16038;DHT22;8123;50.906;6.172;2023-02-27T01:19:48;0.10;99.90
16038;DHT22;8123;50.906;6.172;2023-02-27T01:22:14;0.10;99.90
16038;DHT22;8123;50.906;6.172;2023-02-27T01:24:39;0.10;99.90
16038;DHT22;8123;50.906;6.172;2023-02-27T01:27:05;0.10;99.90
16038;DHT22;8123;50.906;6.172;2023-02-27T01:29:31;0.00;99.90
16038;DHT22;8123;50.906;6.172;2023-02-27T01:31:56;0.00;99.90
16038;DHT22;8123;50.906;6.172;2023-02-27T01:34:22;-0.10;99.90
16038;DHT22;8123;50.906;6.172;2023-02-27T01:36:48;-0.10;99.90
16038;DHT22;8123;50.906;6.172;2023-02-27T01:39:13;-0.10;99.90
16038;DHT22;8123;50.906;6.172;2023-02-27T01:41:39;-0.10;99.90
16038;DHT22;8123;50.906;6.172;2023-02-27T01:44:10;-0.10;99.90
16038;DHT22;8123;50.906;6.172;2023-02-27T01:46:36;-0.10;99.90
16038;DHT22;8123;50.906;6.172;2023-02-27T01:49:27;-0.10;99.90
16038;DHT22;8123;50.906;6.172;2023-02-27T01:52:04;-0.10;99.90
16038;DHT22;8123;50.906;6.172;2023-02-27T01:54:34;-0.10;99.90
16038;DHT22;8123;50.906;6.172;2023-02-27T01:57:01;-0.10;99.90
16038;DHT22;8123;50.906;6.172;2023-02-27T01:59:31;-0.10;99.90
16038;DHT22;8123;50.906;6.172;2023-02-27T02:01:57;-0.20;99.90
16038;DHT22;8123;50.906;6.172;2023-02-27T02:04:35;-0.20;99.90
16038;DHT22;8123;50.906;6.172;2023-02-27T02:07:06;-0.10;99.90
16038;DHT22;8123;50.906;6.172;2023-02-27T02:09:36;-0.20;99.90
16038;DHT22;8123;50.906;6.172;2023-02-27T02:12:04;-0.20;99.90
16038;DHT22;8123;50.906;6.172;2023-02-27T02:14:29;-0.20;99.90
16038;DHT22;8123;50.906;6.172;2023-02-27T02:34:40;-0.30;99.90
16038;DHT22;8123;50.906;6.172;2023-02-27T02:40:56;-0.30;99.90
16038;DHT22;8123;50.906;6.172;2023-02-27T02:48:46;-0.30;99.90
16038;DHT22;8123;50.906;6.172;2023-02-27T02:51:17;-0.30;99.90
16038;DHT22;8123;50.906;6.172;2023-02-27T02:53:53;-0.40;99.90
16038;DHT22;8123;50.906;6.172;2023-02-27T02:56:39;-0.40;99.90
16038;DHT22;8123;50.906;6.172;2023-02-27T02:59:13;-0.40;99.90
16038;DHT22;8123;50.906;6.172;2023-02-27T03:01:48;-0.40;99.90
16038;DHT22;8123;50.906;6.172;2023-02-27T03:07:03;-0.40;99.90
16038;DHT22;8123;50.906;6.172;2023-02-27T03:09:46;-0.40;99.90
16038;DHT22;8123;50.906;6.172;2023-02-27T03:12:17;-0.40;99.90
16038;DHT22;8123;50.906;6.172;2023-02-27T03:15:01;-0.50;99.90
16038;DHT22;8123;50.906;6.172;2023-02-27T03:17:46;-0.50;99.90
16038;DHT22;8123;50.906;6.172;2023-02-27T03:20:24;-0.50;99.90
16038;DHT22;8123;50.906;6.172;2023-02-27T03:22:54;-0.40;99.90
16038;DHT22;8123;50.906;6.172;2023-02-27T03:25:23;-0.40;99.90
16038;DHT22;8123;50.906;6.172;2023-02-27T03:27:58;0.30;99.90
16038;DHT22;8123;50.906;6.172;2023-02-27T03:33:29;-0.50;99.90
16038;DHT22;8123;50.906;6.172;2023-02-27T03:36:02;-0.50;99.90
16038;DHT22;8123;50.906;6.172;2023-02-27T03:38:48;-0.50;99.90
16038;DHT22;8123;50.906;6.172;2023-02-27T03:41:39;-0.50;99.90
16038;DHT22;8123;50.906;6.172;2023-02-27T03:44:29;-0.50;99.90
16038;DHT22;8123;50.906;6.172;2023-02-27T03:46:56;-0.60;99.90
16038;DHT22;8123;50.906;6.172;2023-02-27T03:49:21;-0.60;99.90
16038;DHT22;8123;50.906;6.172;2023-02-27T03:51:47;-0.60;99.90
16038;DHT22;8123;50.906;6.172;2023-02-27T03:54:16;-0.70;99.90
16038;DHT22;8123;50.906;6.172;2023-02-27T03:56:49;-0.70;99.90
16038;DHT22;8123;50.906;6.172;2023-02-27T03:59:16;-0.70;99.90
16038;DHT22;8123;50.906;6.172;2023-02-27T04:01:42;-0.70;99.90
16038;DHT22;8123;50.906;6.172;2023-02-27T04:04:11;-0.60;99.90
16038;DHT22;8123;50.906;6.172;2023-02-27T04:06:39;-0.70;99.90
16038;DHT22;8123;50.906;6.172;2023-02-27T04:17:29;-0.60;99.90
16038;DHT22;8123;50.906;6.172;2023-02-27T04:22:37;-0.60;99.90
16038;DHT22;8123;50.906;6.172;2023-02-27T04:28:17;-0.70;99.90
16038;DHT22;8123;50.906;6.172;2023-02-27T04:31:27;-0.70;99.90
16038;DHT22;8123;50.906;6.172;2023-02-27T04:36:53;-0.80;99.90
16038;DHT22;8123;50.906;6.172;2023-02-27T04:39:25;-0.80;99.90
16038;DHT22;8123;50.906;6.172;2023-02-27T04:44:39;-0.80;99.90
16038;DHT22;8123;50.906;6.172;2023-02-27T04:47:07;-0.90;99.90
16038;DHT22;8123;50.906;6.172;2023-02-27T04:49:40;-0.90;99.90
16038;DHT22;8123;50.906;6.172;2023-02-27T04:52:29;-0.90;99.90
16038;DHT22;8123;50.906;6.172;2023-02-27T04:55:06;-0.90;99.90
16038;DHT22;8123;50.906;6.172;2023-02-27T04:57:38;-0.90;99.90
16038;DHT22;8123;50.906;6.172;2023-02-27T05:00:08;-0.90;99.90
16038;DHT22;8123;50.906;6.172;2023-02-27T05:02:37;-0.90;99.90
16038;DHT22;8123;50.906;6.172;2023-02-27T05:05:10;-0.90;99.90
16038;DHT22;8123;50.906;6.172;2023-02-27T05:07:49;-1.00;99.90
16038;DHT22;8123;50.906;6.172;2023-02-27T05:13:05;-1.00;99.90
16038;DHT22;8123;50.906;6.172;2023-02-27T05:15:39;-0.90;99.90
16038;DHT22;8123;50.906;6.172;2023-02-27T05:18:10;-0.90;99.90
16038;DHT22;8123;50.906;6.172;2023-02-27T05:23:13;-0.90;99.90
16038;DHT22;8123;50.906;6.172;2023-02-27T05:28:40;-0.90;99.90
16038;DHT22;8123;50.906;6.172;2023-02-27T05:31:25;-0.90;99.90
16038;DHT22;8123;50.906;6.172;2023-02-27T05:34:05;-0.90;99.90
16038;DHT22;8123;50.906;6.172;2023-02-27T05:36:54;-0.90;99.90
16038;DHT22;8123;50.906;6.172;2023-02-27T05:39:23;-1.00;99.90
16038;DHT22;8123;50.906;6.172;2023-02-27T05:41:55;-1.10;99.90
16038;DHT22;8123;50.906;6.172;2023-02-27T05:44:26;-1.10;99.90
16038;DHT22;8123;50.906;6.172;2023-02-27T05:46:58;-1.10;99.90
16038;DHT22;8123;50.906;6.172;2023-02-27T05:49:34;-1.20;99.90
16038;DHT22;8123;50.906;6.172;2023-02-27T05:52:02;-1.10;99.90
16038;DHT22;8123;50.906;6.172;2023-02-27T05:54:37;-1.10;99.90
16038;DHT22;8123;50.906;6.172;2023-02-27T05:57:09;-1.10;99.90
16038;DHT22;8123;50.906;6.172;2023-02-27T05:59:40;-1.10;99.90
16038;DHT22;8123;50.906;6.172;2023-02-27T06:02:10;-1.10;99.90
16038;DHT22;8123;50.906;6.172;2023-02-27T06:04:37;-1.10;99.90
16038;DHT22;8123;50.906;6.172;2023-02-27T06:07:02;-1.20;99.90
16038;DHT22;8123;50.906;6.172;2023-02-27T06:09:31;-1.10;99.90
16038;DHT22;8123;50.906;6.172;2023-02-27T06:11:59;-1.20;99.90
16038;DHT22;8123;50.906;6.172;2023-02-27T06:14:26;-1.20;99.90
16038;DHT22;8123;50.906;6.172;2023-02-27T06:16:51;-1.20;99.90
16038;DHT22;8123;50.906;6.172;2023-02-27T06:19:17;-1.20;99.90
16038;DHT22;8123;50.906;6.172;2023-02-27T06:21:42;-1.30;99.90
16038;DHT22;8123;50.906;6.172;2023-02-27T06:24:08;-1.20;99.90
16038;DHT22;8123;50.906;6.172;2023-02-27T06:26:34;-1.20;99.90
16038;DHT22;8123;50.906;6.172;2023-02-27T06:28:59;-1.30;99.90
16038;DHT22;8123;50.906;6.172;2023-02-27T06:31:25;-1.30;99.90
16038;DHT22;8123;50.906;6.172;2023-02-27T06:33:51;-1.30;99.90
16038;DHT22;8123;50.906;6.172;2023-02-27T06:36:16;-1.20;99.90
16038;DHT22;8123;50.906;6.172;2023-02-27T06:38:42;-1.20;99.90
16038;DHT22;8123;50.906;6.172;2023-02-27T06:41:08;-1.10;99.90
16038;DHT22;8123;50.906;6.172;2023-02-27T06:43:34;-1.10;99.90
16038;DHT22;8123;50.906;6.172;2023-02-27T06:46:01;-1.10;99.90
16038;DHT22;8123;50.906;6.172;2023-02-27T06:48:27;-1.10;99.90
16038;DHT22;8123;50.906;6.172;2023-02-27T06:50:54;-1.10;99.90
16038;DHT22;8123;50.906;6.172;2023-02-27T06:53:21;-1.10;99.90
16038;DHT22;8123;50.906;6.172;2023-02-27T06:55:47;-1.10;99.90
16038;DHT22;8123;50.906;6.172;2023-02-27T06:58:14;-1.00;99.90
16038;DHT22;8123;50.906;6.172;2023-02-27T07:00:40;-1.00;99.90
16038;DHT22;8123;50.906;6.172;2023-02-27T07:03:05;-1.00;99.90
16038;DHT22;8123;50.906;6.172;2023-02-27T07:05:31;-0.90;99.90
16038;DHT22;8123;50.906;6.172;2023-02-27T07:07:57;-0.90;99.90
16038;DHT22;8123;50.906;6.172;2023-02-27T07:10:23;-0.90;99.90
16038;DHT22;8123;50.906;6.172;2023-02-27T07:12:49;-0.80;99.90
16038;DHT22;8123;50.906;6.172;2023-02-27T07:15:14;-0.80;99.90
16038;DHT22;8123;50.906;6.172;2023-02-27T07:17:40;-0.70;99.90
16038;DHT22;8123;50.906;6.172;2023-02-27T07:20:07;-0.70;99.90
16038;DHT22;8123;50.906;6.172;2023-02-27T07:22:35;-0.70;99.90
16038;DHT22;8123;50.906;6.172;2023-02-27T07:25:00;-0.70;99.90
16038;DHT22;8123;50.906;6.172;2023-02-27T07:27:26;-0.70;99.90
16038;DHT22;8123;50.906;6.172;2023-02-27T07:29:52;-0.70;99.90
16038;DHT22;8123;50.906;6.172;2023-02-27T07:32:18;-0.60;99.90
16038;DHT22;8123;50.906;6.172;2023-02-27T07:34:44;-0.60;99.90
16038;DHT22;8123;50.906;6.172;2023-02-27T07:37:09;-0.50;99.90
16038;DHT22;8123;50.906;6.172;2023-02-27T07:39:35;-0.60;99.90
16038;DHT22;8123;50.906;6.172;2023-02-27T07:42:01;-0.50;99.90
16038;DHT22;8123;50.906;6.172;2023-02-27T07:44:26;-0.40;99.90
16038;DHT22;8123;50.906;6.172;2023-02-27T07:46:52;-0.40;99.90
16038;DHT22;8123;50.906;6.172;2023-02-27T07:49:18;-0.40;99.90
16038;DHT22;8123;50.906;6.172;2023-02-27T07:51:44;-0.40;99.90
16038;DHT22;8123;50.906;6.172;2023-02-27T07:54:09;-0.30;99.90
16038;DHT22;8123;50.906;6.172;2023-02-27T07:56:35;-0.30;99.90
16038;DHT22;8123;50.906;6.172;2023-02-27T07:59:01;-0.30;99.90
16038;DHT22;8123;50.906;6.172;2023-02-27T08:01:26;-0.30;99.90
16038;DHT22;8123;50.906;6.172;2023-02-27T08:03:52;-0.20;99.90
16038;DHT22;8123;50.906;6.172;2023-02-27T08:06:18;-0.20;99.90
16038;DHT22;8123;50.906;6.172;2023-02-27T08:08:44;-0.10;99.90
16038;DHT22;8123;50.906;6.172;2023-02-27T08:11:10;-0.10;99.90
16038;DHT22;8123;50.906;6.172;2023-02-27T08:13:36;0.00;99.90
16038;DHT22;8123;50.906;6.172;2023-02-27T08:16:01;0.50;99.90
16038;DHT22;8123;50.906;6.172;2023-02-27T08:18:27;0.20;99.90
16038;DHT22;8123;50.906;6.172;2023-02-27T08:20:54;0.20;99.90
16038;DHT22;8123;50.906;6.172;2023-02-27T08:23:21;0.20;99.90
16038;DHT22;8123;50.906;6.172;2023-02-27T08:25:47;0.20;99.90
16038;DHT22;8123;50.906;6.172;2023-02-27T08:28:13;0.30;99.90
16038;DHT22;8123;50.906;6.172;2023-02-27T08:30:38;0.30;99.90
16038;DHT22;8123;50.906;6.172;2023-02-27T08:33:04;0.40;99.90
16038;DHT22;8123;50.906;6.172;2023-02-27T08:35:30;0.40;99.90
16038;DHT22;8123;50.906;6.172;2023-02-27T08:37:56;0.70;99.90
16038;DHT22;8123;50.906;6.172;2023-02-27T08:40:21;0.60;99.90
16038;DHT22;8123;50.906;6.172;2023-02-27T08:42:47;0.60;99.90
16038;DHT22;8123;50.906;6.172;2023-02-27T08:45:12;0.60;99.90
16038;DHT22;8123;50.906;6.172;2023-02-27T08:47:38;0.70;99.90
16038;DHT22;8123;50.906;6.172;2023-02-27T08:50:04;0.70;99.90
16038;DHT22;8123;50.906;6.172;2023-02-27T08:52:30;0.80;99.90
16038;DHT22;8123;50.906;6.172;2023-02-27T08:54:56;1.50;99.90
16038;DHT22;8123;50.906;6.172;2023-02-27T08:57:22;0.90;99.90
16038;DHT22;8123;50.906;6.172;2023-02-27T08:59:47;1.00;99.90
16038;DHT22;8123;50.906;6.172;2023-02-27T09:02:13;1.00;99.90
16038;DHT22;8123;50.906;6.172;2023-02-27T09:04:39;1.10;99.90
16038;DHT22;8123;50.906;6.172;2023-02-27T09:07:05;1.20;99.90
16038;DHT22;8123;50.906;6.172;2023-02-27T09:09:30;1.20;99.90
16038;DHT22;8123;50.906;6.172;2023-02-27T09:11:56;1.30;99.90
16038;DHT22;8123;50.906;6.172;2023-02-27T09:14:22;1.30;99.90
16038;DHT22;8123;50.906;6.172;2023-02-27T09:16:48;1.40;99.90
16038;DHT22;8123;50.906;6.172;2023-02-27T09:19:14;1.40;99.90
16038;DHT22;8123;50.906;6.172;2023-02-27T09:21:46;1.40;99.90
16038;DHT22;8123;50.906;6.172;2023-02-27T09:24:11;1.60;99.90
16038;DHT22;8123;50.906;6.172;2023-02-27T09:26:38;1.90;99.90
16038;DHT22;8123;50.906;6.172;2023-02-27T09:29:03;1.70;99.90
16038;DHT22;8123;50.906;6.172;2023-02-27T09:31:31;1.80;99.90
16038;DHT22;8123;50.906;6.172;2023-02-27T09:33:57;1.80;99.90
16038;DHT22;8123;50.906;6.172;2023-02-27T09:36:30;1.80;99.90
16038;DHT22;8123;50.906;6.172;2023-02-27T09:38:57;1.20;99.90
16038;DHT22;8123;50.906;6.172;2023-02-27T09:44:41;2.00;99.90
16038;DHT22;8123;50.906;6.172;2023-02-27T09:47:16;2.10;99.90
16038;DHT22;8123;50.906;6.172;2023-02-27T09:49:52;2.30;99.90
16038;DHT22;8123;50.906;6.172;2023-02-27T09:52:19;2.10;99.90
16038;DHT22;8123;50.906;6.172;2023-02-27T09:54:45;2.10;99.90
16038;DHT22;8123;50.906;6.172;2023-02-27T09:57:36;2.20;99.90
16038;DHT22;8123;50.906;6.172;2023-02-27T10:00:10;2.20;99.90
16038;DHT22;8123;50.906;6.172;2023-02-27T10:08:28;2.40;99.90
16038;DHT22;8123;50.906;6.172;2023-02-27T10:11:11;2.70;99.90
16038;DHT22;8123;50.906;6.172;2023-02-27T10:14:02;2.40;99.90
16038;DHT22;8123;50.906;6.172;2023-02-27T10:16:31;2.30;99.90
16038;DHT22;8123;50.906;6.172;2023-02-27T10:21:47;2.50;99.90
16038;DHT22;8123;50.906;6.172;2023-02-27T10:26:53;2.60;99.90
16038;DHT22;8123;50.906;6.172;2023-02-27T10:29:36;2.70;99.90
16038;DHT22;8123;50.906;6.172;2023-02-27T10:32:07;2.70;99.90
16038;DHT22;8123;50.906;6.172;2023-02-27T10:34:38;2.70;99.90
16038;DHT22;8123;50.906;6.172;2023-02-27T10:37:06;2.70;99.90
16038;DHT22;8123;50.906;6.172;2023-02-27T10:39:44;2.80;99.90
16038;DHT22;8123;50.906;6.172;2023-02-27T10:42:13;2.80;99.90
16038;DHT22;8123;50.906;6.172;2023-02-27T10:44:39;2.70;99.90
16038;DHT22;8123;50.906;6.172;2023-02-27T10:47:05;2.70;99.90
16038;DHT22;8123;50.906;6.172;2023-02-27T10:49:32;2.70;99.90
16038;DHT22;8123;50.906;6.172;2023-02-27T10:54:30;2.80;99.90
16038;DHT22;8123;50.906;6.172;2023-02-27T10:56:59;2.80;99.90
16038;DHT22;8123;50.906;6.172;2023-02-27T10:59:26;2.90;99.90
16038;DHT22;8123;50.906;6.172;2023-02-27T11:01:56;3.00;99.90
16038;DHT22;8123;50.906;6.172;2023-02-27T11:04:36;3.00;99.90
16038;DHT22;8123;50.906;6.172;2023-02-27T11:07:05;3.10;99.90
16038;DHT22;8123;50.906;6.172;2023-02-27T11:09:34;3.20;99.90
16038;DHT22;8123;50.906;6.172;2023-02-27T11:12:23;3.60;99.90
16038;DHT22;8123;50.906;6.172;2023-02-27T11:15:02;3.30;99.90
16038;DHT22;8123;50.906;6.172;2023-02-27T11:19:55;3.20;99.90
16038;DHT22;8123;50.906;6.172;2023-02-27T11:22:27;3.60;99.90
16038;DHT22;8123;50.906;6.172;2023-02-27T11:25:30;3.30;99.90
16038;DHT22;8123;50.906;6.172;2023-02-27T11:31:04;3.20;99.90
16038;DHT22;8123;50.906;6.172;2023-02-27T11:33:50;3.20;99.90
16038;DHT22;8123;50.906;6.172;2023-02-27T11:36:18;3.10;99.90
16038;DHT22;8123;50.906;6.172;2023-02-27T11:38:54;3.20;99.90
16038;DHT22;8123;50.906;6.172;2023-02-27T11:41:29;3.30;99.90
16038;DHT22;8123;50.906;6.172;2023-02-27T11:43:56;3.80;99.90
16038;DHT22;8123;50.906;6.172;2023-02-27T11:46:24;3.90;99.90
16038;DHT22;8123;50.906;6.172;2023-02-27T11:52:13;4.10;99.90
16038;DHT22;8123;50.906;6.172;2023-02-27T11:54:51;4.20;99.90
16038;DHT22;8123;50.906;6.172;2023-02-27T11:59:55;4.10;99.90
16038;DHT22;8123;50.906;6.172;2023-02-27T12:05:17;4.10;99.90
16038;DHT22;8123;50.906;6.172;2023-02-27T12:08:01;4.00;99.90
16038;DHT22;8123;50.906;6.172;2023-02-27T12:10:44;4.00;99.90
16038;DHT22;8123;50.906;6.172;2023-02-27T12:13:26;4.10;99.90
16038;DHT22;8123;50.906;6.172;2023-02-27T12:15:58;4.20;99.90
16038;DHT22;8123;50.906;6.172;2023-02-27T12:21:09;4.40;99.90
16038;DHT22;8123;50.906;6.172;2023-02-27T12:24:07;4.70;99.90
16038;DHT22;8123;50.906;6.172;2023-02-27T12:26:37;4.40;99.90
16038;DHT22;8123;50.906;6.172;2023-02-27T12:29:10;4.50;99.90
16038;DHT22;8123;50.906;6.172;2023-02-27T12:34:27;4.50;99.90
16038;DHT22;8123;50.906;6.172;2023-02-27T12:37:24;4.60;99.90
16038;DHT22;8123;50.906;6.172;2023-02-27T12:39:52;4.60;99.90
16038;DHT22;8123;50.906;6.172;2023-02-27T12:53:41;4.70;99.90
16038;DHT22;8123;50.906;6.172;2023-02-27T12:56:20;4.90;99.90
16038;DHT22;8123;50.906;6.172;2023-02-27T13:01:47;4.60;99.90
16038;DHT22;8123;50.906;6.172;2023-02-27T13:07:22;4.70;99.90
16038;DHT22;8123;50.906;6.172;2023-02-27T13:10:22;4.80;99.90
16038;DHT22;8123;50.906;6.172;2023-02-27T13:12:50;4.70;99.90
16038;DHT22;8123;50.906;6.172;2023-02-27T13:15:32;4.70;99.90
16038;DHT22;8123;50.906;6.172;2023-02-27T13:18:29;4.70;99.90
16038;DHT22;8123;50.906;6.172;2023-02-27T13:23:48;4.80;99.90
16038;DHT22;8123;50.906;6.172;2023-02-27T13:26:21;4.90;99.90
16038;DHT22;8123;50.906;6.172;2023-02-27T13:28:49;5.30;99.90
16038;DHT22;8123;50.906;6.172;2023-02-27T13:31:33;5.30;99.90
16038;DHT22;8123;50.906;6.172;2023-02-27T13:34:13;5.70;99.90
16038;DHT22;8123;50.906;6.172;2023-02-27T13:36:48;5.10;99.90
16038;DHT22;8123;50.906;6.172;2023-02-27T13:42:00;5.10;99.90
16038;DHT22;8123;50.906;6.172;2023-02-27T13:50:01;4.90;99.90
16038;DHT22;8123;50.906;6.172;2023-02-27T13:52:35;5.10;99.90
16038;DHT22;8123;50.906;6.172;2023-02-27T13:55:04;5.10;99.90
16038;DHT22;8123;50.906;6.172;2023-02-27T13:57:32;5.10;99.90
16038;DHT22;8123;50.906;6.172;2023-02-27T14:00:02;5.00;99.90
16038;DHT22;8123;50.906;6.172;2023-02-27T14:05:16;5.00;99.90
16038;DHT22;8123;50.906;6.172;2023-02-27T14:08:02;5.40;99.90
16038;DHT22;8123;50.906;6.172;2023-02-27T14:10:30;5.00;99.90
16038;DHT22;8123;50.906;6.172;2023-02-27T14:12:57;5.10;99.90
16038;DHT22;8123;50.906;6.172;2023-02-27T14:17:56;5.20;99.90
16038;DHT22;8123;50.906;6.172;2023-02-27T14:25:52;5.30;99.90
16038;DHT22;8123;50.906;6.172;2023-02-27T14:28:34;5.40;99.90
16038;DHT22;8123;50.906;6.172;2023-02-27T14:31:05;5.70;99.90
16038;DHT22;8123;50.906;6.172;2023-02-27T14:33:46;5.60;99.90
16038;DHT22;8123;50.906;6.172;2023-02-27T14:36:24;5.70;99.90
16038;DHT22;8123;50.906;6.172;2023-02-27T14:38:58;6.00;99.90
16038;DHT22;8123;50.906;6.172;2023-02-27T14:44:28;5.50;99.90
16038;DHT22;8123;50.906;6.172;2023-02-27T14:46:57;5.60;99.90
16038;DHT22;8123;50.906;6.172;2023-02-27T14:49:29;5.40;99.90
16038;DHT22;8123;50.906;6.172;2023-02-27T14:51:56;5.40;99.90
16038;DHT22;8123;50.906;6.172;2023-02-27T14:54:23;5.50;99.90
16038;DHT22;8123;50.906;6.172;2023-02-27T14:57:00;5.50;99.90
16038;DHT22;8123;50.906;6.172;2023-02-27T14:59:26;5.50;99.90
16038;DHT22;8123;50.906;6.172;2023-02-27T15:01:54;5.70;99.90
16038;DHT22;8123;50.906;6.172;2023-02-27T15:04:27;5.50;99.90
16038;DHT22;8123;50.906;6.172;2023-02-27T15:06:54;5.50;99.90
16038;DHT22;8123;50.906;6.172;2023-02-27T15:09:31;5.80;99.90
16038;DHT22;8123;50.906;6.172;2023-02-27T15:11:58;5.90;99.90
16038;DHT22;8123;50.906;6.172;2023-02-27T15:14:30;6.00;99.90
16038;DHT22;8123;50.906;6.172;2023-02-27T15:16:56;5.90;99.90
16038;DHT22;8123;50.906;6.172;2023-02-27T15:19:27;5.60;99.90
16038;DHT22;8123;50.906;6.172;2023-02-27T15:21:55;5.90;99.90
16038;DHT22;8123;50.906;6.172;2023-02-27T15:24:32;6.00;99.90
16038;DHT22;8123;50.906;6.172;2023-02-27T15:29:38;5.30;99.90
16038;DHT22;8123;50.906;6.172;2023-02-27T15:32:05;5.30;99.90
16038;DHT22;8123;50.906;6.172;2023-02-27T15:34:33;5.40;99.90
16038;DHT22;8123;50.906;6.172;2023-02-27T15:37:00;5.70;99.90
16038;DHT22;8123;50.906;6.172;2023-02-27T15:39:28;5.60;99.90
16038;DHT22;8123;50.906;6.172;2023-02-27T15:42:03;6.00;99.90
16038;DHT22;8123;50.906;6.172;2023-02-27T15:44:40;5.60;99.90
16038;DHT22;8123;50.906;6.172;2023-02-27T15:47:06;5.60;99.90
16038;DHT22;8123;50.906;6.172;2023-02-27T15:49:35;5.90;99.90
16038;DHT22;8123;50.906;6.172;2023-02-27T15:52:12;5.50;99.90
16038;DHT22;8123;50.906;6.172;2023-02-27T15:54:46;5.70;99.90
16038;DHT22;8123;50.906;6.172;2023-02-27T15:57:12;5.50;99.90
16038;DHT22;8123;50.906;6.172;2023-02-27T15:59:40;5.20;99.90
16038;DHT22;8123;50.906;6.172;2023-02-27T16:02:36;5.00;99.90
16038;DHT22;8123;50.906;6.172;2023-02-27T16:05:03;4.90;99.90
16038;DHT22;8123;50.906;6.172;2023-02-27T16:07:35;4.90;99.90
16038;DHT22;8123;50.906;6.172;2023-02-27T16:10:08;4.80;99.90
16038;DHT22;8123;50.906;6.172;2023-02-27T16:12:40;4.90;99.90
16038;DHT22;8123;50.906;6.172;2023-02-27T16:15:28;5.10;99.90
16038;DHT22;8123;50.906;6.172;2023-02-27T16:18:03;4.90;99.90
16038;DHT22;8123;50.906;6.172;2023-02-27T16:20:44;5.10;99.90
16038;DHT22;8123;50.906;6.172;2023-02-27T16:23:28;5.10;99.90
16038;DHT22;8123;50.906;6.172;2023-02-27T16:26:05;5.30;99.90
16038;DHT22;8123;50.906;6.172;2023-02-27T16:33:59;4.70;99.90
16038;DHT22;8123;50.906;6.172;2023-02-27T16:36:28;4.80;99.90
16038;DHT22;8123;50.906;6.172;2023-02-27T16:38:54;4.90;99.90
16038;DHT22;8123;50.906;6.172;2023-02-27T16:41:21;4.80;99.90
16038;DHT22;8123;50.906;6.172;2023-02-27T16:43:49;4.60;99.90
16038;DHT22;8123;50.906;6.172;2023-02-27T16:46:16;4.50;99.90
16038;DHT22;8123;50.906;6.172;2023-02-27T16:48:54;4.90;99.90
16038;DHT22;8123;50.906;6.172;2023-02-27T16:51:25;4.40;99.90
16038;DHT22;8123;50.906;6.172;2023-02-27T16:53:53;4.30;99.90
16038;DHT22;8123;50.906;6.172;2023-02-27T16:56:20;4.20;99.90
16038;DHT22;8123;50.906;6.172;2023-02-27T16:58:47;4.20;99.90
16038;DHT22;8123;50.906;6.172;2023-02-27T17:01:13;4.60;99.90
16038;DHT22;8123;50.906;6.172;2023-02-27T17:03:43;4.00;99.90
16038;DHT22;8123;50.906;6.172;2023-02-27T17:06:10;3.90;99.90
16038;DHT22;8123;50.906;6.172;2023-02-27T17:08:37;3.80;99.90
16038;DHT22;8123;50.906;6.172;2023-02-27T17:11:03;3.80;99.90
16038;DHT22;8123;50.906;6.172;2023-02-27T17:13:30;3.80;99.90
16038;DHT22;8123;50.906;6.172;2023-02-27T17:15:57;3.90;99.90
16038;DHT22;8123;50.906;6.172;2023-02-27T17:18:23;4.20;99.90
16038;DHT22;8123;50.906;6.172;2023-02-27T17:20:50;3.70;99.90
16038;DHT22;8123;50.906;6.172;2023-02-27T17:23:18;4.50;99.90
16038;DHT22;8123;50.906;6.172;2023-02-27T17:25:44;3.60;99.90
16038;DHT22;8123;50.906;6.172;2023-02-27T17:28:11;3.60;99.90
16038;DHT22;8123;50.906;6.172;2023-02-27T17:30:38;3.80;99.90
16038;DHT22;8123;50.906;6.172;2023-02-27T17:33:03;3.40;99.90
16038;DHT22;8123;50.906;6.172;2023-02-27T17:35:29;3.40;99.90
16038;DHT22;8123;50.906;6.172;2023-02-27T17:37:55;3.40;99.90
16038;DHT22;8123;50.906;6.172;2023-02-27T17:40:21;3.40;99.90
16038;DHT22;8123;50.906;6.172;2023-02-27T17:42:47;3.30;99.90
16038;DHT22;8123;50.906;6.172;2023-02-27T17:45:13;4.00;99.90
16038;DHT22;8123;50.906;6.172;2023-02-27T17:47:39;3.20;99.90
16038;DHT22;8123;50.906;6.172;2023-02-27T17:50:05;3.20;99.90
16038;DHT22;8123;50.906;6.172;2023-02-27T17:52:33;3.10;99.90
16038;DHT22;8123;50.906;6.172;2023-02-27T17:54:59;3.10;99.90
16038;DHT22;8123;50.906;6.172;2023-02-27T17:57:24;3.10;99.90
16038;DHT22;8123;50.906;6.172;2023-02-27T17:59:50;3.90;99.90
16038;DHT22;8123;50.906;6.172;2023-02-27T18:02:15;3.00;99.90
16038;DHT22;8123;50.906;6.172;2023-02-27T18:04:41;3.00;99.90
16038;DHT22;8123;50.906;6.172;2023-02-27T18:07:07;3.10;99.90
16038;DHT22;8123;50.906;6.172;2023-02-27T18:09:33;2.90;99.90
16038;DHT22;8123;50.906;6.172;2023-02-27T18:11:58;2.90;99.90
16038;DHT22;8123;50.906;6.172;2023-02-27T18:14:24;2.80;99.90
16038;DHT22;8123;50.906;6.172;2023-02-27T18:16:51;2.80;99.90
16038;DHT22;8123;50.906;6.172;2023-02-27T18:19:16;2.80;99.90
16038;DHT22;8123;50.906;6.172;2023-02-27T18:21:42;2.80;99.90
16038;DHT22;8123;50.906;6.172;2023-02-27T18:24:12;2.70;99.90
16038;DHT22;8123;50.906;6.172;2023-02-27T18:26:39;2.70;99.90
16038;DHT22;8123;50.906;6.172;2023-02-27T18:29:09;2.70;99.90
16038;DHT22;8123;50.906;6.172;2023-02-27T18:31:37;2.80;99.90
16038;DHT22;8123;50.906;6.172;2023-02-27T18:34:03;2.70;99.90
16038;DHT22;8123;50.906;6.172;2023-02-27T18:36:30;2.70;99.90
16038;DHT22;8123;50.906;6.172;2023-02-27T18:38:56;2.70;99.90
16038;DHT22;8123;50.906;6.172;2023-02-27T18:41:21;2.70;99.90
16038;DHT22;8123;50.906;6.172;2023-02-27T18:43:47;2.70;99.90